Airfield :
LOGIN :

Register | Disclaimer

   EN    FR    IT 

 










Legend :    VFR   Marginal VFR   IFR   Intensive IFR   Very Intensive IFR
Visi :
Ceiling :
>= 8 km
>= 3000ft
5 to 8 km
1000 to 3000 ft
1500m to 5 km
500 to 1000 ft
800 to 1500m
200 to 500 ft
< 800m
< 200 ft
Symbols :   Thunderstorms  Fog  Heavy snow  Heavy precipitations  Wind > 20 kt
SIGMETs :     Misc.  Thunderstorms  Icing  Turbulence  Mountain Waves  Volcanic Ashes






- Airport Elevation : 13 ft
- IATA code : OST


EBOS - Oostend bruges Int.

CURRENT METAR :
  • 100920Z 36012KT 9999 FEW012 BKN030 15/12 Q1015 NOSIG

EXPIRED METARs :
  • 100850Z 35014KT 9999 SCT009 BKN020 15/12 Q1014 NOSIG
  • 100820Z 32008KT 9999 FEW008 BKN013 BKN020 15/13 Q1014 BECMG SCT013 BKN020
  • 100750Z 34011KT 310V010 4000 -RA FEW007 BKN012 BKN032 15/11 Q1014 TEMPO BKN007
  • 100720Z 34011KT 9999 FEW015 BKN044 16/12 Q1013 TEMPO 4000 -DZRA BKN007
  • 100650Z 34011KT 9999 SCT013 BKN044 15/12 Q1012 TEMPO 4000 -DZRA BKN007

TAF TAF EBOS
Valid from the 10 at 06:00 until the 11 at 12:00 UTC


100500Z 1006/1112 25012KT 9999 SCT008 BKN012
TEMPO 1006/1007 3000 -DZRA BKN006
BECMG 1007/1009 32015KT SCT020
PROB30
TEMPO 1009/1022 4000 SHRA
BECMG 1020/1022 22004KT



MET'MAP, your aeronautical weather chart ! - Copyright ORBIFLY December 2007 - Disclaimer

ORBIFLY MET'MAP TEAM :

Programming & Development : Alexandra Zaïnal
Concept & original design : Baudouin d'Aumeries
Assistance for programming : Marc-Olivier Méhu
Technical & hardware support : Manuel Goepfert

Contact : metmap@orbifly.com




SOURCES & CREDITS :

   NOAA